createdAt,value
2019-02-24T00:01:20.305Z,10.70
2019-02-24T00:03:48.855Z,8.13
2019-02-24T00:06:17.404Z,7.97
2019-02-24T00:08:45.957Z,8.90
2019-02-24T00:11:14.531Z,10.33
2019-02-24T00:13:43.055Z,7.80
2019-02-24T00:16:11.521Z,9.53
2019-02-24T00:18:39.994Z,8.57
2019-02-24T00:21:08.544Z,7.90
2019-02-24T00:23:37.021Z,8.83
2019-02-24T00:26:07.031Z,8.53
2019-02-24T00:28:35.489Z,7.20
2019-02-24T00:31:04.057Z,8.77
2019-02-24T00:33:32.517Z,10.23
2019-02-24T00:36:01.001Z,8.23
2019-02-24T00:38:29.505Z,8.20
2019-02-24T00:40:58.031Z,6.13
2019-02-24T00:43:28.147Z,7.27
2019-02-24T00:45:56.598Z,7.13
2019-02-24T00:48:25.099Z,6.80
2019-02-24T00:50:53.557Z,7.73
2019-02-24T00:53:22.053Z,6.90
2019-02-24T00:55:50.668Z,7.80
2019-02-24T00:58:19.213Z,8.37
2019-02-24T01:00:47.671Z,9.37
2019-02-24T01:03:16.163Z,7.87
2019-02-24T01:05:44.713Z,7.23
2019-02-24T01:08:13.251Z,7.80
2019-02-24T01:10:41.719Z,9.23
2019-02-24T01:13:10.181Z,8.70
2019-02-24T01:15:38.718Z,8.80
2019-02-24T01:18:07.175Z,8.30
2019-02-24T01:20:35.826Z,11.10
2019-02-24T01:23:04.361Z,10.90
2019-02-24T01:25:32.839Z,9.57
2019-02-24T01:28:01.310Z,11.50
2019-02-24T01:30:29.787Z,8.83
2019-02-24T01:32:58.264Z,7.83
2019-02-24T01:35:26.753Z,7.90
2019-02-24T01:37:55.205Z,7.53
2019-02-24T01:40:23.693Z,7.10
2019-02-24T01:42:52.161Z,8.03
2019-02-24T01:45:20.705Z,7.70
2019-02-24T01:47:49.162Z,9.33
2019-02-24T01:50:17.637Z,10.37
2019-02-24T01:52:46.123Z,9.10
2019-02-24T01:55:14.662Z,8.53
2019-02-24T01:57:43.260Z,7.00
2019-02-24T02:00:11.814Z,9.77
2019-02-24T02:02:40.376Z,7.90
2019-02-24T02:05:09.046Z,6.53
2019-02-24T02:07:37.526Z,9.37
2019-02-24T02:10:06.611Z,8.13
2019-02-24T02:12:35.155Z,7.20
2019-02-24T02:15:03.792Z,7.37
2019-02-24T02:17:32.366Z,5.77
2019-02-24T02:20:00.828Z,5.67
2019-02-24T02:22:29.310Z,6.03
2019-02-24T02:24:57.762Z,6.70
2019-02-24T02:27:26.231Z,9.00
2019-02-24T02:29:54.689Z,5.43
2019-02-24T02:32:23.188Z,6.50
2019-02-24T02:34:51.802Z,5.83
2019-02-24T02:37:20.299Z,7.13
2019-02-24T02:39:48.762Z,8.27
2019-02-24T02:42:17.315Z,6.30
2019-02-24T02:44:45.897Z,6.97
2019-02-24T02:47:14.416Z,7.50
2019-02-24T02:49:42.904Z,9.20
2019-02-24T02:52:11.356Z,6.90
2019-02-24T02:54:39.880Z,6.47
2019-02-24T02:57:08.418Z,6.73
2019-02-24T02:59:36.975Z,6.70
2019-02-24T03:02:05.492Z,7.27
2019-02-24T03:04:33.987Z,6.67
2019-02-24T03:07:06.603Z,5.53
2019-02-24T03:09:35.144Z,7.33
2019-02-24T03:12:03.595Z,7.43
2019-02-24T03:14:32.074Z,6.03
2019-02-24T03:17:00.524Z,7.33
2019-02-24T03:19:29.014Z,7.40
2019-02-24T03:21:57.544Z,7.03
2019-02-24T03:24:26.061Z,9.30
2019-02-24T03:26:54.624Z,7.33
2019-02-24T03:29:23.181Z,6.50
2019-02-24T03:31:51.642Z,8.00
2019-02-24T03:34:20.116Z,6.53
2019-02-24T03:36:48.609Z,6.87
2019-02-24T03:39:17.108Z,7.63
2019-02-24T03:41:45.610Z,7.47
2019-02-24T03:44:14.144Z,7.37
2019-02-24T03:46:42.637Z,9.50
2019-02-24T03:49:11.097Z,7.57
2019-02-24T03:51:39.568Z,7.37
2019-02-24T03:54:08.030Z,8.57
2019-02-24T03:56:36.565Z,6.40
2019-02-24T03:59:14.683Z,6.33
2019-02-24T04:01:35.426Z,9.70
2019-02-24T04:04:03.962Z,8.40
2019-02-24T04:06:32.440Z,9.30
2019-02-24T04:09:00.915Z,6.67
2019-02-24T04:11:29.376Z,7.83
2019-02-24T04:13:57.845Z,6.17
2019-02-24T04:16:26.335Z,6.63
2019-02-24T04:18:54.903Z,9.00
2019-02-24T04:21:23.437Z,6.00
2019-02-24T04:23:51.984Z,6.70
2019-02-24T04:26:20.453Z,8.20
2019-02-24T04:28:48.938Z,7.13
2019-02-24T04:31:18.687Z,6.20
2019-02-24T04:33:47.186Z,6.80
2019-02-24T04:36:15.719Z,5.17
2019-02-24T04:38:44.201Z,6.17
2019-02-24T04:41:12.673Z,7.93
2019-02-24T04:43:41.222Z,6.67
2019-02-24T04:46:09.726Z,6.70
2019-02-24T04:48:38.273Z,5.50
2019-02-24T04:51:06.842Z,7.30
2019-02-24T04:53:35.365Z,6.13
2019-02-24T04:56:03.853Z,7.83
2019-02-24T04:58:32.365Z,7.13
2019-02-24T05:01:00.860Z,6.77
2019-02-24T05:03:29.412Z,5.77
2019-02-24T05:05:57.967Z,4.97
2019-02-24T05:08:26.428Z,6.20
2019-02-24T05:10:55.073Z,8.40
2019-02-24T05:13:23.642Z,6.60
2019-02-24T05:15:52.199Z,8.10
2019-02-24T05:18:20.681Z,6.83
2019-02-24T05:20:49.256Z,7.63
2019-02-24T05:23:17.825Z,8.30
2019-02-24T05:25:46.367Z,8.63
2019-02-24T05:28:14.939Z,6.47
2019-02-24T05:30:43.517Z,7.43
2019-02-24T05:33:12.096Z,6.43
2019-02-24T05:35:40.632Z,6.80
2019-02-24T05:38:09.149Z,7.43
2019-02-24T05:40:37.720Z,7.50
2019-02-24T05:43:06.298Z,6.27
2019-02-24T05:45:34.846Z,7.63
2019-02-24T05:48:03.408Z,8.10
2019-02-24T05:50:32.232Z,6.60
2019-02-24T05:53:00.787Z,7.07
2019-02-24T05:55:29.257Z,7.50
2019-02-24T05:57:57.869Z,7.37
2019-02-24T06:00:26.366Z,6.83
2019-02-24T06:02:54.925Z,8.27
2019-02-24T06:05:23.393Z,8.67
2019-02-24T06:07:51.961Z,7.40
2019-02-24T06:10:20.583Z,9.60
2019-02-24T06:12:49.055Z,6.80
2019-02-24T06:15:17.602Z,7.73
2019-02-24T06:17:46.083Z,10.77
2019-02-24T06:20:14.652Z,8.67
2019-02-24T06:22:43.126Z,9.27
2019-02-24T06:25:11.679Z,7.23
2019-02-24T06:27:40.157Z,8.57
2019-02-24T06:30:09.194Z,7.93
2019-02-24T06:32:37.671Z,7.43
2019-02-24T06:35:07.766Z,8.53
2019-02-24T06:37:36.301Z,8.37
2019-02-24T06:40:06.405Z,7.67
2019-02-24T06:42:34.865Z,8.93
2019-02-24T06:45:03.608Z,9.93
2019-02-24T06:47:32.097Z,8.03
2019-02-24T06:50:00.569Z,9.00
2019-02-24T06:52:29.080Z,6.63
2019-02-24T06:54:57.622Z,7.70
2019-02-24T06:57:26.187Z,7.97
2019-02-24T06:59:54.649Z,7.67
2019-02-24T07:02:23.156Z,7.33
2019-02-24T07:04:51.682Z,7.97
2019-02-24T07:07:20.160Z,8.53
2019-02-24T07:09:48.614Z,7.33
2019-02-24T07:12:17.094Z,6.90
2019-02-24T07:14:45.632Z,7.10
2019-02-24T07:17:14.185Z,9.70
2019-02-24T07:19:42.664Z,6.50
2019-02-24T07:22:11.132Z,7.60
2019-02-24T07:24:39.675Z,8.10
2019-02-24T07:27:08.251Z,5.60
2019-02-24T07:29:36.715Z,8.57
2019-02-24T07:32:05.198Z,7.37
2019-02-24T07:34:33.696Z,5.97
2019-02-24T07:37:02.254Z,8.30
2019-02-24T07:39:30.796Z,7.30
2019-02-24T07:41:59.342Z,9.07
2019-02-24T07:44:27.899Z,7.43
2019-02-24T07:46:56.379Z,7.63
2019-02-24T07:49:24.946Z,11.20
2019-02-24T07:51:53.464Z,9.77
2019-02-24T07:54:21.972Z,8.97
2019-02-24T07:56:50.454Z,9.53
2019-02-24T07:59:19.014Z,7.97
2019-02-24T08:01:47.537Z,9.10
2019-02-24T08:04:16.038Z,9.57
2019-02-24T08:06:44.508Z,8.47
2019-02-24T08:09:12.978Z,9.27
2019-02-24T08:11:41.464Z,6.73
2019-02-24T08:14:10.017Z,8.87
2019-02-24T08:16:38.464Z,9.03
2019-02-24T08:19:06.982Z,8.23
2019-02-24T08:21:35.520Z,6.50
2019-02-24T08:24:04.098Z,8.40
2019-02-24T08:26:32.560Z,7.83
2019-02-24T08:29:01.013Z,9.93
2019-02-24T08:31:29.507Z,12.43
2019-02-24T08:33:57.991Z,13.93
2019-02-24T08:36:28.123Z,9.70
2019-02-24T08:38:56.594Z,8.40
2019-02-24T08:41:25.085Z,9.70
2019-02-24T08:43:53.541Z,7.80
2019-02-24T08:46:22.058Z,7.67
2019-02-24T08:48:50.577Z,12.77
2019-02-24T08:51:19.352Z,10.53
2019-02-24T08:53:47.880Z,9.80
2019-02-24T08:56:16.524Z,10.77
2019-02-24T08:58:45.083Z,8.20
2019-02-24T09:01:13.643Z,9.63
2019-02-24T09:03:42.173Z,10.03
2019-02-24T09:06:10.753Z,9.57
2019-02-24T09:08:39.307Z,9.33
2019-02-24T09:11:07.890Z,8.63
2019-02-24T09:13:36.467Z,7.73
2019-02-24T09:16:05.015Z,10.80
2019-02-24T09:18:33.573Z,11.50
2019-02-24T09:21:02.082Z,12.03
2019-02-24T09:23:30.635Z,9.90
2019-02-24T09:25:59.106Z,9.50
2019-02-24T09:28:27.572Z,8.13
2019-02-24T09:31:00.909Z,7.70
2019-02-24T09:33:26.260Z,7.10
2019-02-24T09:35:56.445Z,7.87
2019-02-24T09:38:25.028Z,6.93
2019-02-24T09:40:53.550Z,8.73
2019-02-24T09:43:22.047Z,7.80
2019-02-24T09:45:50.513Z,7.10
2019-02-24T09:48:19.006Z,7.50
2019-02-24T09:50:47.503Z,9.37
2019-02-24T09:53:16.029Z,7.43
2019-02-24T09:55:44.508Z,8.60
2019-02-24T09:58:13.035Z,8.10
2019-02-24T10:00:41.611Z,7.63
2019-02-24T10:03:10.129Z,8.13
2019-02-24T10:05:39.122Z,7.23
2019-02-24T10:08:08.246Z,7.27
2019-02-24T10:10:36.752Z,7.70
2019-02-24T10:13:05.526Z,7.50
2019-02-24T10:15:34.035Z,8.83
2019-02-24T10:18:02.525Z,7.27
2019-02-24T10:20:31.154Z,8.17
2019-02-24T10:22:59.611Z,8.40
2019-02-24T10:25:28.125Z,7.63
2019-02-24T10:27:56.657Z,6.73
2019-02-24T10:30:25.233Z,8.40
2019-02-24T10:32:53.724Z,7.53
2019-02-24T10:35:22.318Z,7.43
2019-02-24T10:37:50.803Z,9.13
2019-02-24T10:40:19.318Z,11.40
2019-02-24T10:42:47.800Z,7.67
2019-02-24T10:45:17.568Z,8.10
2019-02-24T10:47:46.142Z,7.13
2019-02-24T10:50:16.555Z,8.10
2019-02-24T10:52:45.066Z,7.90
2019-02-24T10:55:13.674Z,7.00
2019-02-24T10:57:42.310Z,9.83
2019-02-24T11:00:15.656Z,8.30
2019-02-24T11:02:44.222Z,7.53
2019-02-24T11:05:12.915Z,9.10
2019-02-24T11:07:41.444Z,8.80
2019-02-24T11:10:10.322Z,8.30
2019-02-24T11:12:38.856Z,9.43
2019-02-24T11:15:10.516Z,9.27
2019-02-24T11:17:39.163Z,8.73
2019-02-24T11:20:15.943Z,8.50
2019-02-24T11:22:44.483Z,6.73
2019-02-24T11:25:13.226Z,7.90
2019-02-24T11:27:41.817Z,7.57
2019-02-24T11:30:12.041Z,7.87
2019-02-24T11:32:40.657Z,7.90
2019-02-24T11:35:11.147Z,6.70
2019-02-24T11:37:39.772Z,6.17
2019-02-24T11:40:10.770Z,7.17
2019-02-24T11:42:39.243Z,6.43
2019-02-24T11:45:09.444Z,6.73
2019-02-24T11:47:37.892Z,6.90
2019-02-24T11:50:08.918Z,6.17
2019-02-24T11:52:37.461Z,7.53
2019-02-24T11:55:07.400Z,6.30
2019-02-24T11:57:35.872Z,6.90
2019-02-24T12:00:09.160Z,7.60
2019-02-24T12:02:37.744Z,6.87
2019-02-24T12:05:07.805Z,7.83
2019-02-24T12:07:36.309Z,6.60
2019-02-24T12:10:07.533Z,6.60
2019-02-24T12:12:36.096Z,7.13
2019-02-24T12:15:07.290Z,6.67
2019-02-24T12:17:35.850Z,6.27
2019-02-24T12:20:06.158Z,7.33
2019-02-24T12:22:34.652Z,6.53
2019-02-24T12:25:03.667Z,6.40
2019-02-24T12:27:32.244Z,5.73
2019-02-24T12:30:00.725Z,6.70
2019-02-24T12:32:29.224Z,9.53
2019-02-24T12:34:57.768Z,6.77
2019-02-24T12:37:26.258Z,7.27
2019-02-24T12:39:54.706Z,6.00
2019-02-24T12:42:23.174Z,5.47
2019-02-24T12:44:51.726Z,7.27
2019-02-24T12:47:20.186Z,6.20
2019-02-24T12:49:48.681Z,5.73
2019-02-24T12:52:17.210Z,5.17
2019-02-24T12:54:45.732Z,7.40
2019-02-24T12:57:14.259Z,5.63
2019-02-24T12:59:44.399Z,6.60
2019-02-24T13:02:13.205Z,6.50
2019-02-24T13:04:41.675Z,5.77
2019-02-24T13:07:10.139Z,6.47
2019-02-24T13:09:38.700Z,7.43
2019-02-24T13:12:07.224Z,4.97
2019-02-24T13:14:35.699Z,6.43
2019-02-24T13:17:04.328Z,5.60
2019-02-24T13:19:32.885Z,6.33
2019-02-24T13:22:01.333Z,5.10
2019-02-24T13:24:29.823Z,4.83
2019-02-24T13:26:58.266Z,7.57
2019-02-24T13:29:26.913Z,5.90
2019-02-24T13:31:55.497Z,5.90
2019-02-24T13:34:24.047Z,5.50
2019-02-24T13:36:52.601Z,5.13
2019-02-24T13:39:21.065Z,5.90
2019-02-24T13:41:49.557Z,5.73
2019-02-24T13:44:18.088Z,5.60
2019-02-24T13:46:46.582Z,6.00
2019-02-24T13:49:15.122Z,6.43
2019-02-24T13:51:43.717Z,5.93
2019-02-24T13:54:12.243Z,6.03
2019-02-24T13:56:40.725Z,5.37
2019-02-24T13:59:09.211Z,5.50
2019-02-24T14:01:37.685Z,5.77
2019-02-24T14:04:06.181Z,5.20
2019-02-24T14:06:34.707Z,5.47
2019-02-24T14:09:03.210Z,4.87
2019-02-24T14:11:31.739Z,6.67
2019-02-24T14:14:00.230Z,5.30
2019-02-24T14:16:28.681Z,5.57
2019-02-24T14:18:57.162Z,5.63
2019-02-24T14:21:25.626Z,4.87
2019-02-24T14:23:54.177Z,5.40
2019-02-24T14:26:22.646Z,5.43
2019-02-24T14:28:51.146Z,5.00
2019-02-24T14:31:19.697Z,5.30
2019-02-24T14:33:48.260Z,5.30
2019-02-24T14:36:16.815Z,5.87
2019-02-24T14:38:45.302Z,5.23
2019-02-24T14:41:13.899Z,4.37
2019-02-24T14:43:42.485Z,4.70
2019-02-24T14:46:11.074Z,4.90
2019-02-24T14:48:39.640Z,4.57
2019-02-24T14:51:08.245Z,4.33
2019-02-24T14:53:36.815Z,4.43
2019-02-24T14:56:05.481Z,4.03
2019-02-24T14:58:34.013Z,4.23
2019-02-24T15:01:05.176Z,3.57
2019-02-24T15:03:33.655Z,4.07
2019-02-24T15:06:02.237Z,4.17
2019-02-24T15:08:30.778Z,3.93
2019-02-24T15:10:59.291Z,3.73
2019-02-24T15:13:27.858Z,3.47
2019-02-24T15:15:56.481Z,4.43
2019-02-24T15:18:24.933Z,4.13
2019-02-24T15:20:53.485Z,5.17
2019-02-24T15:23:22.029Z,4.17
2019-02-24T15:25:50.671Z,3.10
2019-02-24T15:28:19.202Z,3.90
2019-02-24T15:30:47.683Z,3.43
2019-02-24T15:33:16.199Z,3.57
2019-02-24T15:35:44.816Z,3.33
2019-02-24T15:38:13.448Z,5.40
2019-02-24T15:40:41.994Z,3.03
2019-02-24T15:43:10.502Z,3.73
2019-02-24T15:45:39.003Z,4.10
2019-02-24T15:48:07.636Z,3.37
2019-02-24T15:50:36.172Z,4.10
2019-02-24T15:53:04.668Z,3.60
2019-02-24T15:55:33.169Z,3.63
2019-02-24T15:58:01.720Z,4.60
2019-02-24T16:00:30.201Z,3.70
2019-02-24T16:03:01.866Z,3.43
2019-02-24T16:05:28.965Z,3.70
2019-02-24T16:07:57.552Z,4.23
2019-02-24T16:10:26.085Z,4.03
2019-02-24T16:12:54.598Z,3.77
2019-02-24T16:15:27.878Z,3.37
2019-02-24T16:17:56.401Z,4.03
2019-02-24T16:20:32.537Z,4.40
2019-02-24T16:23:01.031Z,4.53
2019-02-24T16:25:29.505Z,4.37
2019-02-24T16:27:58.072Z,4.30
2019-02-24T16:30:26.646Z,4.63
2019-02-24T16:32:55.104Z,3.87
2019-02-24T16:35:23.617Z,4.43
2019-02-24T16:37:52.148Z,3.53
2019-02-24T16:40:26.111Z,4.53
2019-02-24T16:42:54.562Z,3.67
2019-02-24T16:45:23.204Z,3.73
2019-02-24T16:47:51.872Z,5.10
2019-02-24T16:50:26.399Z,4.30
2019-02-24T16:52:54.884Z,6.20
2019-02-24T16:55:23.598Z,5.57
2019-02-24T16:57:52.087Z,8.07
2019-02-24T17:00:22.721Z,8.00
2019-02-24T17:02:51.276Z,6.27
2019-02-24T17:05:19.903Z,6.50
2019-02-24T17:07:49.296Z,4.80
2019-02-24T17:10:19.797Z,5.97
2019-02-24T17:12:48.298Z,5.13
2019-02-24T17:15:16.839Z,5.00
2019-02-24T17:17:45.387Z,5.00
2019-02-24T17:20:21.361Z,6.20
2019-02-24T17:22:49.930Z,6.37
2019-02-24T17:25:18.485Z,6.23
2019-02-24T17:27:47.113Z,6.30
2019-02-24T17:30:16.405Z,6.73
2019-02-24T17:32:44.959Z,6.70
2019-02-24T17:35:13.565Z,10.60
2019-02-24T17:37:42.132Z,10.17
2019-02-24T17:40:21.009Z,7.83
2019-02-24T17:42:49.576Z,8.77
2019-02-24T17:45:18.124Z,9.43
2019-02-24T17:47:46.665Z,9.57
2019-02-24T17:50:16.591Z,11.33
2019-02-24T17:52:45.160Z,8.47
2019-02-24T17:55:18.589Z,8.23
2019-02-24T17:57:47.125Z,8.60
2019-02-24T18:00:25.403Z,8.03
2019-02-24T18:02:54.029Z,9.03
2019-02-24T18:05:22.502Z,8.60
2019-02-24T18:07:51.064Z,10.80
2019-02-24T18:10:19.648Z,10.67
2019-02-24T18:12:48.189Z,10.80
2019-02-24T18:15:16.828Z,10.60
2019-02-24T18:17:45.447Z,8.03
2019-02-24T18:20:18.617Z,12.00
2019-02-24T18:22:47.216Z,7.37
2019-02-24T18:25:15.795Z,5.80
2019-02-24T18:27:44.330Z,7.17
2019-02-24T18:30:21.874Z,8.00
2019-02-24T18:32:50.438Z,9.87
2019-02-24T18:35:18.996Z,9.07
2019-02-24T18:37:47.470Z,10.07
2019-02-24T18:40:16.494Z,7.87
2019-02-24T18:42:45.050Z,7.33
2019-02-24T18:45:14.929Z,7.77
2019-02-24T18:47:43.573Z,8.70
2019-02-24T18:50:16.630Z,6.40
2019-02-24T18:52:45.123Z,8.63
2019-02-24T18:55:13.955Z,7.90
2019-02-24T18:57:42.595Z,9.33
2019-02-24T19:00:19.534Z,8.70
2019-02-24T19:02:48.113Z,8.63
2019-02-24T19:05:16.649Z,11.57
2019-02-24T19:07:45.234Z,11.43
2019-02-24T19:10:15.853Z,10.27
2019-02-24T19:12:47.542Z,9.60
2019-02-24T19:15:17.812Z,8.30
2019-02-24T19:17:47.642Z,10.33
2019-02-24T19:20:17.838Z,9.27
2019-02-24T19:22:46.414Z,8.80
2019-02-24T19:25:15.054Z,11.17
2019-02-24T19:27:43.631Z,13.43
2019-02-24T19:30:14.313Z,15.13
2019-02-24T19:32:43.037Z,10.47
2019-02-24T19:35:15.656Z,11.80
2019-02-24T19:37:44.371Z,10.43
2019-02-24T19:40:15.017Z,9.50
2019-02-24T19:42:43.599Z,9.10
2019-02-24T19:45:14.734Z,6.97
2019-02-24T19:47:43.273Z,10.77
2019-02-24T19:50:16.104Z,9.83
2019-02-24T19:52:44.746Z,9.43
2019-02-24T19:55:14.668Z,9.17
2019-02-24T19:57:43.126Z,9.70
2019-02-24T20:00:22.408Z,8.63
2019-02-24T20:02:51.103Z,11.13
2019-02-24T20:05:20.422Z,10.10
2019-02-24T20:07:49.037Z,9.77
2019-02-24T20:10:24.535Z,12.53
2019-02-24T20:12:53.003Z,9.87
2019-02-24T20:15:21.748Z,11.57
2019-02-24T20:17:50.306Z,10.27
2019-02-24T20:20:19.224Z,11.10
2019-02-24T20:22:48.019Z,9.73
2019-02-24T20:25:20.885Z,10.20
2019-02-24T20:27:49.427Z,10.83
2019-02-24T20:30:23.933Z,9.50
2019-02-24T20:32:52.400Z,10.53
2019-02-24T20:35:20.980Z,9.20
2019-02-24T20:37:49.610Z,8.97
2019-02-24T20:40:18.253Z,11.50
2019-02-24T20:42:46.794Z,11.13
2019-02-24T20:45:24.607Z,15.53
2019-02-24T20:47:53.297Z,11.00
2019-02-24T20:50:29.103Z,11.07
2019-02-24T20:52:57.631Z,9.67
2019-02-24T20:55:26.230Z,9.30
2019-02-24T20:57:54.861Z,9.97
2019-02-24T21:00:35.389Z,9.97
2019-02-24T21:03:03.838Z,8.53
2019-02-24T21:05:32.332Z,7.80
2019-02-24T21:08:00.924Z,6.90
2019-02-24T21:10:29.526Z,25.30
2019-02-24T21:12:58.102Z,13.87
2019-02-24T21:15:26.559Z,10.63
2019-02-24T21:17:55.087Z,7.83
2019-02-24T21:20:26.698Z,9.20
2019-02-24T21:22:55.197Z,9.53
2019-02-24T21:25:23.723Z,9.60
2019-02-24T21:27:52.242Z,9.73
2019-02-24T21:30:22.026Z,9.27
2019-02-24T21:32:50.622Z,11.03
2019-02-24T21:35:19.226Z,10.10
2019-02-24T21:37:47.778Z,7.90
2019-02-24T21:40:19.691Z,7.53
2019-02-24T21:42:48.310Z,10.50
2019-02-24T21:45:27.556Z,9.10
2019-02-24T21:47:56.129Z,8.63
2019-02-24T21:50:24.729Z,8.17
2019-02-24T21:52:53.196Z,8.80
2019-02-24T21:55:21.694Z,8.77
2019-02-24T21:57:50.221Z,8.77
2019-02-24T22:00:23.672Z,9.37
2019-02-24T22:02:52.284Z,7.97
2019-02-24T22:05:20.968Z,9.43
2019-02-24T22:07:49.518Z,11.33
2019-02-24T22:10:18.242Z,8.60
2019-02-24T22:12:46.798Z,10.20
2019-02-24T22:15:17.803Z,8.30
2019-02-24T22:17:46.416Z,8.87
2019-02-24T22:20:15.657Z,9.13
2019-02-24T22:22:44.749Z,8.13
2019-02-24T22:25:14.431Z,8.80
2019-02-24T22:27:43.045Z,7.43
2019-02-24T22:30:19.618Z,8.67
2019-02-24T22:32:48.197Z,8.20
2019-02-24T22:35:16.690Z,7.50
2019-02-24T22:37:45.378Z,8.27
2019-02-24T22:40:16.717Z,9.43
2019-02-24T22:42:45.774Z,9.07
2019-02-24T22:45:16.897Z,7.87
2019-02-24T22:47:45.915Z,9.17
2019-02-24T22:50:14.978Z,8.73
2019-02-24T22:52:43.644Z,10.17
2019-02-24T22:55:14.025Z,8.63
2019-02-24T22:57:42.670Z,8.43
2019-02-24T23:00:16.737Z,7.33
2019-02-24T23:02:45.306Z,7.33
2019-02-24T23:05:13.970Z,8.17
2019-02-24T23:07:42.462Z,8.70
2019-02-24T23:10:11.248Z,10.40
2019-02-24T23:12:39.766Z,10.87
2019-02-24T23:15:08.432Z,7.97
2019-02-24T23:17:36.937Z,9.33
2019-02-24T23:20:07.624Z,8.70
2019-02-24T23:22:36.103Z,8.53
2019-02-24T23:25:08.236Z,7.93
2019-02-24T23:27:36.804Z,9.00
2019-02-24T23:30:07.825Z,10.30
2019-02-24T23:32:36.400Z,9.63
2019-02-24T23:35:06.684Z,10.60
2019-02-24T23:37:35.176Z,8.67
2019-02-24T23:40:05.968Z,7.83
2019-02-24T23:42:34.423Z,9.23
2019-02-24T23:45:09.813Z,9.47
2019-02-24T23:47:33.137Z,8.63
2019-02-24T23:50:01.609Z,8.13
2019-02-24T23:52:30.173Z,8.77
2019-02-24T23:54:58.669Z,7.50
2019-02-24T23:57:27.212Z,9.43
2019-02-24T23:59:55.711Z,7.97
